Time;durP1;ratioP1;P1;durP2;ratioP2;P2;SDS_P1;SDS_P2;PMS_P1;PMS_P2;Temp;Humidity;BMP_temperature;BMP_pressure;BME280_temperature;BME280_humidity;BME280_pressure;Samples;Min_cycle;Max_cycle;Signal;HPM_P1;HPM_P2
2023/08/17 00:00:15;;;;;;;15.20;13.77;;;;;;;;;;6157441;28;20196;-64
2023/08/17 00:03:16;;;;;;;14.90;13.40;;;;;;;;;;6162360;28;20195;-64
2023/08/17 00:06:17;;;;;;;17.53;15.17;;;;;;;;;;6157078;28;20244;-64
2023/08/17 00:09:18;;;;;;;14.70;13.30;;;;;;;;;;6157963;28;20202;-64
2023/08/17 00:12:19;;;;;;;13.90;12.60;;;;;;;;;;6180586;28;20196;-64
2023/08/17 00:15:20;;;;;;;15.33;13.30;;;;;;;;;;6158754;28;20197;-64
2023/08/17 00:18:21;;;;;;;14.13;12.93;;;;;;;;;;6154934;28;20828;-63
2023/08/17 00:21:22;;;;;;;14.67;13.30;;;;;;;;;;6157926;28;20212;-63
2023/08/17 00:24:23;;;;;;;14.73;13.30;;;;;;;;;;6172664;28;20208;-64
2023/08/17 00:27:24;;;;;;;15.57;13.90;;;;;;;;;;6161147;28;20240;-64
2023/08/17 00:30:25;;;;;;;15.00;13.50;;;;;;;;;;6178571;28;20369;-65
2023/08/17 00:33:26;;;;;;;15.73;14.13;;;;;;;;;;6160494;28;20301;-64
2023/08/17 00:36:27;;;;;;;17.13;14.73;;;;;;;;;;6178558;28;20211;-64
2023/08/17 00:39:28;;;;;;;15.17;13.80;;;;;;;;;;6159130;28;20193;-64
2023/08/17 00:42:29;;;;;;;15.53;14.03;;;;;;;;;;6166179;28;20210;-64
2023/08/17 00:45:30;;;;;;;15.13;13.67;;;;;;;;;;6174916;28;20235;-64
2023/08/17 00:48:32;;;;;;;15.23;13.73;;;;;;;;;;6159762;28;20199;-64
2023/08/17 00:51:33;;;;;;;14.27;12.83;;;;;;;;;;6151715;28;20248;-64
2023/08/17 00:54:35;;;;;;;15.73;14.30;;;;;;;;;;6144532;28;20194;-64
2023/08/17 00:57:36;;;;;;;15.00;13.70;;;;;;;;;;6165988;28;20204;-64
2023/08/17 01:00:37;;;;;;;16.37;14.30;;;;;;;;;;6167350;28;20189;-65
2023/08/17 01:03:43;;;;;;;14.87;13.50;;;;;;;;;;6159047;28;20200;-65
2023/08/17 01:06:44;;;;;;;14.97;13.57;;;;;;;;;;6171444;28;20276;-65
2023/08/17 01:09:45;;;;;;;15.60;14.03;;;;;;;;;;6159746;28;20198;-65
2023/08/17 01:12:53;;;;;;;15.80;14.03;;;;;;;;;;6169062;28;20203;-65
2023/08/17 01:15:57;;;;;;;16.13;14.43;;;;;;;;;;6170439;28;20288;-65
2023/08/17 01:18:59;;;;;;;17.80;16.07;;;;;;;;;;6170539;28;20200;-64
2023/08/17 01:22:08;;;;;;;17.57;15.37;;;;;;;;;;6174525;28;20627;-64
2023/08/17 01:25:09;;;;;;;15.93;14.43;;;;;;;;;;6169598;28;20214;-64
2023/08/17 01:28:10;;;;;;;16.07;13.67;;;;;;;;;;6152658;28;20205;-64
2023/08/17 01:31:21;;;;;;;16.83;15.20;;;;;;;;;;6163209;28;20196;-64
2023/08/17 01:34:24;;;;;;;15.87;14.20;;;;;;;;;;6175482;28;20244;-65
2023/08/17 01:37:29;;;;;;;16.77;15.27;;;;;;;;;;6167904;28;20253;-65
2023/08/17 01:40:32;;;;;;;17.07;14.47;;;;;;;;;;6163615;28;20227;-65
2023/08/17 01:43:33;;;;;;;17.07;15.43;;;;;;;;;;6163696;28;20232;-64
2023/08/17 01:46:35;;;;;;;16.00;14.63;;;;;;;;;;6174332;28;20212;-64
2023/08/17 01:49:36;;;;;;;14.23;12.87;;;;;;;;;;6158361;28;20197;-64
2023/08/17 01:52:37;;;;;;;16.27;14.67;;;;;;;;;;6158992;28;20187;-64
2023/08/17 01:55:38;;;;;;;16.07;14.60;;;;;;;;;;6171369;28;20235;-64
2023/08/17 01:58:39;;;;;;;14.93;13.60;;;;;;;;;;6158385;28;20193;-64
2023/08/17 02:01:40;;;;;;;17.47;14.70;;;;;;;;;;6146853;28;20192;-65
2023/08/17 02:04:41;;;;;;;16.93;15.13;;;;;;;;;;6170567;28;20254;-65
2023/08/17 02:07:42;;;;;;;15.20;13.63;;;;;;;;;;6165269;28;20239;-65
2023/08/17 02:10:44;;;;;;;15.37;13.83;;;;;;;;;;6142870;28;20221;-65
2023/08/17 02:13:45;;;;;;;15.73;14.23;;;;;;;;;;6155487;28;20219;-65
2023/08/17 02:16:46;;;;;;;16.43;14.63;;;;;;;;;;6157423;28;20201;-65
2023/08/17 02:19:47;;;;;;;16.67;15.03;;;;;;;;;;6163400;28;20196;-64
2023/08/17 02:22:48;;;;;;;16.37;14.87;;;;;;;;;;6177946;28;20193;-64
2023/08/17 02:25:49;;;;;;;16.70;14.67;;;;;;;;;;6162598;28;20223;-64
2023/08/17 02:28:51;;;;;;;16.07;14.37;;;;;;;;;;6163745;28;20209;-65
2023/08/17 02:31:52;;;;;;;16.30;14.67;;;;;;;;;;6163073;28;20200;-65
2023/08/17 02:34:53;;;;;;;21.77;15.73;;;;;;;;;;6163859;28;20203;-64
2023/08/17 02:37:54;;;;;;;16.07;14.77;;;;;;;;;;6162722;28;20200;-64
2023/08/17 02:40:55;;;;;;;16.63;14.93;;;;;;;;;;6161967;28;20196;-63
2023/08/17 02:43:56;;;;;;;16.43;14.80;;;;;;;;;;6168975;28;20201;-64
2023/08/17 02:46:57;;;;;;;16.67;15.00;;;;;;;;;;6156370;28;20226;-63
2023/08/17 02:49:58;;;;;;;16.90;15.33;;;;;;;;;;6177499;28;20219;-65
2023/08/17 02:52:59;;;;;;;16.90;15.30;;;;;;;;;;6159272;28;20222;-65
2023/08/17 02:56:00;;;;;;;16.73;15.07;;;;;;;;;;6161252;28;20639;-65
2023/08/17 02:59:01;;;;;;;16.57;15.03;;;;;;;;;;6168685;28;20228;-64
2023/08/17 03:02:02;;;;;;;16.70;15.20;;;;;;;;;;6161838;28;20235;-63
2023/08/17 03:05:04;;;;;;;16.13;14.50;;;;;;;;;;6161376;28;20216;-64
2023/08/17 03:08:05;;;;;;;16.40;14.80;;;;;;;;;;6165048;28;20198;-64
2023/08/17 03:11:07;;;;;;;16.70;15.20;;;;;;;;;;6172753;28;20201;-63
2023/08/17 03:14:08;;;;;;;15.80;14.30;;;;;;;;;;6173067;28;20209;-64
2023/08/17 03:17:09;;;;;;;16.03;14.43;;;;;;;;;;6154932;28;20254;-64
2023/08/17 03:20:10;;;;;;;17.70;15.77;;;;;;;;;;6188370;28;20208;-64
2023/08/17 03:23:11;;;;;;;17.57;15.67;;;;;;;;;;6161975;28;20192;-64
2023/08/17 03:26:12;;;;;;;18.33;16.73;;;;;;;;;;6169441;28;20225;-64
2023/08/17 03:29:13;;;;;;;18.57;16.97;;;;;;;;;;6174612;28;20653;-64
2023/08/17 03:32:14;;;;;;;18.60;16.83;;;;;;;;;;6191341;28;20188;-63
2023/08/17 03:35:15;;;;;;;18.70;16.47;;;;;;;;;;6160134;28;20201;-63
2023/08/17 03:38:16;;;;;;;17.73;16.07;;;;;;;;;;6162837;28;20239;-63
2023/08/17 03:41:17;;;;;;;18.97;17.17;;;;;;;;;;6181977;28;20196;-63
2023/08/17 03:44:18;;;;;;;19.67;17.57;;;;;;;;;;6161348;28;20216;-63
2023/08/17 03:47:19;;;;;;;18.70;17.10;;;;;;;;;;6160675;28;20263;-64
2023/08/17 03:50:20;;;;;;;18.97;17.07;;;;;;;;;;6154771;28;20248;-64
2023/08/17 03:53:22;;;;;;;18.93;16.83;;;;;;;;;;6161355;28;20316;-64
2023/08/17 03:56:23;;;;;;;19.43;17.33;;;;;;;;;;6165483;28;20200;-64
2023/08/17 03:59:24;;;;;;;20.17;18.27;;;;;;;;;;6170991;28;20195;-64
2023/08/17 04:02:25;;;;;;;20.03;18.00;;;;;;;;;;6165616;28;20192;-64
2023/08/17 04:05:28;;;;;;;20.17;18.17;;;;;;;;;;6164896;28;20239;-64
2023/08/17 04:08:29;;;;;;;19.40;17.37;;;;;;;;;;6177283;28;20227;-64
2023/08/17 04:11:30;;;;;;;17.97;16.47;;;;;;;;;;6158776;28;20188;-64
2023/08/17 04:14:31;;;;;;;18.40;16.67;;;;;;;;;;6156576;28;20201;-64
2023/08/17 04:17:32;;;;;;;19.13;17.13;;;;;;;;;;6165224;28;20232;-65
2023/08/17 04:20:33;;;;;;;18.60;16.90;;;;;;;;;;6160717;28;20270;-65
2023/08/17 04:23:34;;;;;;;19.40;17.50;;;;;;;;;;6159267;28;20215;-66
2023/08/17 04:26:35;;;;;;;21.97;17.87;;;;;;;;;;6176817;28;20219;-67
2023/08/17 04:29:36;;;;;;;19.20;17.20;;;;;;;;;;6160584;28;20211;-64
2023/08/17 04:32:37;;;;;;;19.13;17.23;;;;;;;;;;6173093;28;20197;-63
2023/08/17 04:35:38;;;;;;;20.43;18.53;;;;;;;;;;6174869;28;20228;-63
2023/08/17 04:38:39;;;;;;;22.03;19.73;;;;;;;;;;6154640;28;20343;-63
2023/08/17 04:41:40;;;;;;;20.90;19.00;;;;;;;;;;6167514;28;20196;-63
2023/08/17 04:44:41;;;;;;;18.97;17.13;;;;;;;;;;6155216;28;20206;-63
2023/08/17 04:47:42;;;;;;;19.83;17.83;;;;;;;;;;6176624;28;20247;-63
2023/08/17 04:50:43;;;;;;;18.80;16.93;;;;;;;;;;6155071;28;20215;-63
2023/08/17 04:53:45;;;;;;;20.93;18.87;;;;;;;;;;6172949;28;20596;-63
2023/08/17 04:56:46;;;;;;;20.27;18.27;;;;;;;;;;6155508;28;20201;-64
2023/08/17 04:59:47;;;;;;;21.27;19.17;;;;;;;;;;6159144;28;20199;-63
2023/08/17 05:02:48;;;;;;;21.47;19.57;;;;;;;;;;6155354;28;20224;-63
2023/08/17 05:05:49;;;;;;;20.43;18.53;;;;;;;;;;6156725;28;20248;-64
2023/08/17 05:08:50;;;;;;;20.93;18.73;;;;;;;;;;6149689;28;20199;-64
2023/08/17 05:11:51;;;;;;;21.80;19.47;;;;;;;;;;6170511;28;20271;-64
2023/08/17 05:14:52;;;;;;;22.13;19.87;;;;;;;;;;6159477;28;20209;-64
2023/08/17 05:17:53;;;;;;;21.77;19.87;;;;;;;;;;6137503;28;20197;-64
2023/08/17 05:20:54;;;;;;;20.87;19.07;;;;;;;;;;6171562;28;20200;-64
2023/08/17 05:23:56;;;;;;;20.70;18.63;;;;;;;;;;6156331;28;20280;-63
2023/08/17 05:26:57;;;;;;;20.97;19.07;;;;;;;;;;6176920;28;20210;-64
2023/08/17 05:29:58;;;;;;;20.17;18.57;;;;;;;;;;6156753;28;20200;-64
2023/08/17 05:32:59;;;;;;;22.40;20.10;;;;;;;;;;6157134;28;20193;-64
2023/08/17 05:36:00;;;;;;;21.87;19.67;;;;;;;;;;6158929;28;20207;-64
2023/08/17 05:39:02;;;;;;;22.20;20.03;;;;;;;;;;6155631;28;20204;-63
2023/08/17 05:42:03;;;;;;;22.83;20.63;;;;;;;;;;6158878;28;20283;-64
2023/08/17 05:45:04;;;;;;;20.20;18.40;;;;;;;;;;6170659;28;20216;-64
2023/08/17 05:48:06;;;;;;;20.00;18.10;;;;;;;;;;6164869;28;20226;-63
2023/08/17 05:51:07;;;;;;;22.37;20.17;;;;;;;;;;6177542;28;20197;-64
2023/08/17 05:54:08;;;;;;;21.47;19.67;;;;;;;;;;6183841;28;20191;-65
2023/08/17 05:57:10;;;;;;;23.37;21.23;;;;;;;;;;6174225;28;20286;-62
2023/08/17 06:00:12;;;;;;;23.73;21.33;;;;;;;;;;6174353;28;20189;-63
2023/08/17 06:03:13;;;;;;;22.80;20.67;;;;;;;;;;6178137;28;20656;-64
2023/08/17 06:06:14;;;;;;;22.27;20.13;;;;;;;;;;6153683;28;20276;-63
2023/08/17 06:09:15;;;;;;;22.13;20.10;;;;;;;;;;6155884;28;20201;-63
2023/08/17 06:12:17;;;;;;;21.87;19.87;;;;;;;;;;6172542;28;20192;-63
2023/08/17 06:15:18;;;;;;;23.07;20.93;;;;;;;;;;6160926;28;20204;-62
2023/08/17 06:18:21;;;;;;;20.73;18.77;;;;;;;;;;6155534;28;20212;-62
2023/08/17 06:21:22;;;;;;;20.97;18.90;;;;;;;;;;6173917;28;20197;-62
2023/08/17 06:24:23;;;;;;;20.50;18.50;;;;;;;;;;6179482;28;20194;-63
2023/08/17 06:27:24;;;;;;;20.27;18.47;;;;;;;;;;6155704;28;20243;-63
2023/08/17 06:30:25;;;;;;;21.40;19.30;;;;;;;;;;6153626;28;20197;-63
2023/08/17 06:33:26;;;;;;;20.93;19.13;;;;;;;;;;6142103;28;20197;-63
2023/08/17 06:36:31;;;;;;;19.80;18.03;;;;;;;;;;6159059;28;20226;-63
2023/08/17 06:39:32;;;;;;;20.87;18.83;;;;;;;;;;6174579;28;20193;-62
2023/08/17 06:42:33;;;;;;;19.57;17.87;;;;;;;;;;6159943;28;20196;-63
2023/08/17 06:45:35;;;;;;;26.13;19.37;;;;;;;;;;6160298;28;20246;-64
2023/08/17 06:48:36;;;;;;;21.57;19.67;;;;;;;;;;6173195;28;20192;-64
2023/08/17 06:51:37;;;;;;;21.23;19.30;;;;;;;;;;6171034;28;20200;-64
2023/08/17 06:54:38;;;;;;;20.53;18.33;;;;;;;;;;6161505;28;20198;-63
2023/08/17 06:57:39;;;;;;;20.33;18.50;;;;;;;;;;6172443;28;20197;-62
2023/08/17 07:00:40;;;;;;;21.90;19.80;;;;;;;;;;6152346;28;20199;-63
2023/08/17 07:03:42;;;;;;;20.53;18.53;;;;;;;;;;6151770;28;20211;-63
2023/08/17 07:06:43;;;;;;;20.93;18.77;;;;;;;;;;6160073;28;20248;-63
2023/08/17 07:09:44;;;;;;;19.77;18.07;;;;;;;;;;6155259;28;20184;-63
2023/08/17 07:12:45;;;;;;;21.23;19.00;;;;;;;;;;6157061;28;20228;-63
2023/08/17 07:15:46;;;;;;;21.57;19.40;;;;;;;;;;6173506;28;20202;-63
2023/08/17 07:18:47;;;;;;;20.77;18.87;;;;;;;;;;6153210;28;20196;-63
2023/08/17 07:21:48;;;;;;;20.87;18.83;;;;;;;;;;6152098;28;20196;-63
2023/08/17 07:24:49;;;;;;;21.03;18.87;;;;;;;;;;6154530;28;20197;-63
2023/08/17 07:27:50;;;;;;;23.33;21.13;;;;;;;;;;6152560;28;20243;-63
2023/08/17 07:30:51;;;;;;;21.73;19.67;;;;;;;;;;6153714;28;20207;-63
2023/08/17 07:33:52;;;;;;;19.00;17.20;;;;;;;;;;6145772;28;20203;-63
2023/08/17 07:36:53;;;;;;;22.47;20.27;;;;;;;;;;6157832;28;20199;-63
2023/08/17 07:39:54;;;;;;;19.80;17.90;;;;;;;;;;6158712;28;20193;-63
2023/08/17 07:42:55;;;;;;;20.47;18.63;;;;;;;;;;6158340;28;20196;-63
2023/08/17 07:45:57;;;;;;;19.30;17.67;;;;;;;;;;6159077;28;20219;-63
2023/08/17 07:48:58;;;;;;;19.60;17.90;;;;;;;;;;6154235;28;20224;-63
2023/08/17 07:52:00;;;;;;;18.40;16.80;;;;;;;;;;6143803;28;20201;-63
2023/08/17 07:55:01;;;;;;;19.27;17.57;;;;;;;;;;6157640;28;20195;-63
2023/08/17 07:58:02;;;;;;;17.30;15.90;;;;;;;;;;6157830;28;20184;-63
2023/08/17 08:01:03;;;;;;;18.10;16.60;;;;;;;;;;6158296;28;20203;-63
2023/08/17 08:04:04;;;;;;;15.83;14.53;;;;;;;;;;6157878;28;20195;-63
2023/08/17 08:07:05;;;;;;;15.47;14.27;;;;;;;;;;6161487;28;20677;-63
2023/08/17 08:10:06;;;;;;;16.50;15.10;;;;;;;;;;6162025;28;20181;-63
2023/08/17 08:13:07;;;;;;;17.70;16.30;;;;;;;;;;6155061;28;20201;-63
2023/08/17 08:16:08;;;;;;;15.87;14.57;;;;;;;;;;6149707;28;20205;-63
2023/08/17 08:19:09;;;;;;;17.27;15.77;;;;;;;;;;6154218;28;20206;-63
2023/08/17 08:22:11;;;;;;;16.50;15.10;;;;;;;;;;6158227;28;20292;-63
2023/08/17 08:25:12;;;;;;;15.87;14.47;;;;;;;;;;6157515;28;20244;-63
2023/08/17 08:28:13;;;;;;;14.97;13.70;;;;;;;;;;6159308;28;20286;-63
2023/08/17 08:31:14;;;;;;;14.40;13.20;;;;;;;;;;6157213;28;20200;-63
2023/08/17 08:34:15;;;;;;;13.60;12.40;;;;;;;;;;6151298;28;20297;-64
2023/08/17 08:37:16;;;;;;;12.80;11.70;;;;;;;;;;6151612;28;20198;-64
2023/08/17 08:40:17;;;;;;;12.73;11.63;;;;;;;;;;6166944;28;20199;-63
2023/08/17 08:43:19;;;;;;;11.93;10.93;;;;;;;;;;6156625;28;20254;-63
2023/08/17 08:46:21;;;;;;;12.73;11.67;;;;;;;;;;6170989;28;20213;-63
2023/08/17 08:49:24;;;;;;;12.03;11.10;;;;;;;;;;6156196;28;20288;-63
2023/08/17 08:52:28;;;;;;;12.57;11.57;;;;;;;;;;6165418;28;20212;-63
2023/08/17 08:55:32;;;;;;;11.30;10.40;;;;;;;;;;6167059;28;20275;-64
2023/08/17 08:58:34;;;;;;;11.33;10.43;;;;;;;;;;6168069;28;20197;-64
2023/08/17 09:01:35;;;;;;;12.40;11.30;;;;;;;;;;6161175;28;20276;-64
2023/08/17 09:04:36;;;;;;;13.30;12.07;;;;;;;;;;6153409;28;20238;-63
2023/08/17 09:07:39;;;;;;;12.50;11.53;;;;;;;;;;6148964;28;20267;-63
2023/08/17 09:10:40;;;;;;;12.83;11.63;;;;;;;;;;6164791;28;20193;-63
2023/08/17 09:13:41;;;;;;;10.93;10.07;;;;;;;;;;6166746;28;20193;-63
2023/08/17 09:16:42;;;;;;;11.53;10.60;;;;;;;;;;6156765;28;20227;-64
2023/08/17 09:19:46;;;;;;;12.17;11.20;;;;;;;;;;6155801;28;20200;-64
2023/08/17 09:22:49;;;;;;;10.63;9.70;;;;;;;;;;6171433;28;20279;-63
2023/08/17 09:25:57;;;;;;;10.03;9.17;;;;;;;;;;6173279;28;20216;-63
2023/08/17 09:29:00;;;;;;;10.57;9.77;;;;;;;;;;6174295;28;20225;-63
2023/08/17 09:32:05;;;;;;;9.47;8.57;;;;;;;;;;6158751;28;20193;-63
2023/08/17 09:35:07;;;;;;;10.37;9.57;;;;;;;;;;6162734;28;20226;-63
2023/08/17 09:38:08;;;;;;;10.40;9.40;;;;;;;;;;6158244;28;20194;-64
2023/08/17 09:41:09;;;;;;;10.03;9.33;;;;;;;;;;6166367;28;20254;-64
2023/08/17 09:44:11;;;;;;;9.30;8.50;;;;;;;;;;6165738;28;20199;-65
2023/08/17 09:47:12;;;;;;;10.57;9.77;;;;;;;;;;6172285;28;20208;-65
2023/08/17 09:50:13;;;;;;;10.77;9.97;;;;;;;;;;6173025;28;20203;-65
2023/08/17 09:53:15;;;;;;;10.70;9.77;;;;;;;;;;6156910;28;20196;-65
2023/08/17 09:56:16;;;;;;;9.53;8.63;;;;;;;;;;6173477;28;20243;-65
2023/08/17 09:59:18;;;;;;;10.40;9.53;;;;;;;;;;6156770;28;20259;-65
2023/08/17 10:02:19;;;;;;;9.70;8.90;;;;;;;;;;6157989;28;20200;-65
2023/08/17 10:05:21;;;;;;;8.60;7.90;;;;;;;;;;6172423;28;20240;-64
2023/08/17 10:08:23;;;;;;;10.00;9.10;;;;;;;;;;6154182;28;20255;-64
2023/08/17 10:11:24;;;;;;;8.80;8.00;;;;;;;;;;6149771;28;20232;-64
2023/08/17 10:14:30;;;;;;;9.73;8.93;;;;;;;;;;6171449;28;20275;-63
2023/08/17 10:17:35;;;;;;;9.53;8.63;;;;;;;;;;6171655;28;20251;-63
2023/08/17 10:20:37;;;;;;;9.43;8.73;;;;;;;;;;6174491;28;20197;-63
2023/08/17 10:23:39;;;;;;;9.90;8.90;;;;;;;;;;6163385;28;20196;-63
2023/08/17 10:26:40;;;;;;;10.37;9.47;;;;;;;;;;6188089;28;20223;-65
2023/08/17 10:29:42;;;;;;;9.93;9.13;;;;;;;;;;6156615;28;20192;-64
2023/08/17 10:32:46;;;;;;;9.73;8.83;;;;;;;;;;6184288;28;20283;-65
2023/08/17 10:35:47;;;;;;;10.33;9.53;;;;;;;;;;6154644;28;20265;-66
2023/08/17 10:39:08;;;;;;;10.80;9.90;;;;;;;;;;6162242;28;20193;-63
2023/08/17 10:42:10;;;;;;;9.67;8.93;;;;;;;;;;6166071;28;20197;-64
2023/08/17 10:45:28;;;;;;;10.60;9.70;;;;;;;;;;6168036;28;20203;-64
2023/08/17 10:48:29;;;;;;;10.13;9.20;;;;;;;;;;6170492;28;20181;-64
2023/08/17 10:51:30;;;;;;;10.20;9.43;;;;;;;;;;6159416;28;20243;-64
2023/08/17 10:54:38;;;;;;;10.57;9.70;;;;;;;;;;6153662;28;20215;-67
2023/08/17 10:57:40;;;;;;;10.53;9.53;;;;;;;;;;6157425;28;20232;-65
2023/08/17 11:00:44;;;;;;;10.70;9.67;;;;;;;;;;6168736;28;20241;-64
2023/08/17 11:03:45;;;;;;;10.30;9.47;;;;;;;;;;6158066;28;20205;-64
2023/08/17 11:06:46;;;;;;;10.43;9.57;;;;;;;;;;6167090;28;20244;-64
2023/08/17 11:09:47;;;;;;;10.63;9.80;;;;;;;;;;6159638;28;20191;-64
2023/08/17 11:12:48;;;;;;;10.30;9.57;;;;;;;;;;6159827;28;20208;-63
2023/08/17 11:15:50;;;;;;;8.67;7.97;;;;;;;;;;6162695;28;20192;-63
2023/08/17 11:18:51;;;;;;;10.00;9.10;;;;;;;;;;6175423;28;20203;-63
2023/08/17 11:21:52;;;;;;;9.13;8.33;;;;;;;;;;6157935;28;20283;-63
2023/08/17 11:24:54;;;;;;;8.23;7.57;;;;;;;;;;6155206;28;20208;-63
2023/08/17 11:27:55;;;;;;;8.57;7.77;;;;;;;;;;6163648;28;20246;-63
2023/08/17 11:30:58;;;;;;;9.40;8.63;;;;;;;;;;6192175;28;20191;-63
2023/08/17 11:33:59;;;;;;;8.83;8.10;;;;;;;;;;6178500;28;20283;-63
2023/08/17 11:37:00;;;;;;;9.50;8.27;;;;;;;;;;6160633;28;20199;-63
2023/08/17 11:40:01;;;;;;;9.00;8.20;;;;;;;;;;6169024;28;20194;-63
2023/08/17 11:43:02;;;;;;;8.57;7.97;;;;;;;;;;6177247;28;20197;-68
2023/08/17 11:46:03;;;;;;;8.73;7.93;;;;;;;;;;6161107;28;20224;-66
2023/08/17 11:49:04;;;;;;;8.50;7.80;;;;;;;;;;6171572;28;20263;-65
2023/08/17 11:52:06;;;;;;;8.13;7.53;;;;;;;;;;6161916;28;20180;-64
2023/08/17 11:55:09;;;;;;;8.17;7.43;;;;;;;;;;6153328;28;20217;-63
2023/08/17 11:58:10;;;;;;;8.23;7.53;;;;;;;;;;6161406;28;20197;-65
2023/08/17 12:01:12;;;;;;;7.90;7.30;;;;;;;;;;6159119;28;20196;-64
2023/08/17 12:04:13;;;;;;;7.70;7.20;;;;;;;;;;6170840;28;20239;-63
2023/08/17 12:07:16;;;;;;;7.00;6.30;;;;;;;;;;6150197;28;20251;-63
2023/08/17 12:10:19;;;;;;;7.13;5.67;;;29.70;61.80;;;;;;6170232;28;20189;-62
2023/08/17 12:13:20;;;;;;;5.60;5.10;;;29.70;61.90;;;;;;6163226;28;20239;-60
2023/08/17 12:16:22;;;;;;;5.30;4.90;;;31.60;57.10;;;;;;6139264;28;20201;-61
2023/08/17 12:19:25;;;;;;;5.00;4.60;;;;;;;;;;6165319;28;20263;-63
2023/08/17 12:22:26;;;;;;;6.67;4.40;;;;;;;;;;6164183;28;20268;-63
2023/08/17 12:25:27;;;;;;;4.72;4.35;;;;;;;;;;6171519;28;20232;-63
2023/08/17 12:28:28;;;;;;;4.72;4.22;;;;;;;;;;6162070;28;20247;-63
2023/08/17 12:31:30;;;;;;;4.38;4.13;;;;;;;;;;6158594;28;20215;-64
2023/08/17 12:34:30;;;;;;;4.53;4.23;;;35.80;47.80;;;;;;6168642;28;20189;-63
2023/08/17 12:37:31;;;;;;;4.77;4.37;;;35.10;48.50;;;;;;6159203;28;20207;-63
2023/08/17 12:40:32;;;;;;;4.83;4.53;;;33.60;48.60;;;;;;6159130;28;20200;-62
2023/08/17 12:43:32;;;;;;;6.40;5.90;;;32.50;52.10;;;;;;6168340;28;20191;-62
2023/08/17 12:46:34;;;;;;;6.00;5.60;;;31.50;54.60;;;;;;6157703;28;20270;-63
2023/08/17 12:49:36;;;;;;;6.03;5.53;;;;;;;;;;6166040;28;20196;-63
2023/08/17 12:52:37;;;;;;;6.00;5.50;;;;;;;;;;6160049;28;20193;-63
2023/08/17 12:55:38;;;;;;;6.63;6.13;;;;;;;;;;6181963;28;20189;-63
2023/08/17 12:58:39;;;;;;;5.60;5.20;;;;;;;;;;6155808;28;20226;-63
2023/08/17 13:01:40;;;;;;;5.40;4.90;;;32.20;56.20;;;;;;6158814;28;20251;-63
2023/08/17 13:04:42;;;;;;;6.50;4.53;;;32.20;56.60;;;;;;6173921;28;20192;-63
2023/08/17 13:07:42;;;;;;;5.37;4.97;;;33.00;54.80;;;;;;6165047;28;20244;-63
2023/08/17 13:10:43;;;;;;;4.50;4.07;;;33.60;55.00;;;;;;6159273;28;20287;-64
2023/08/17 13:13:43;;;;;;;5.27;4.77;;;34.20;49.70;;;;;;6146912;28;20283;-62
2023/08/17 13:16:44;;;;;;;5.40;4.90;;;34.20;52.20;;;;;;6159017;28;20205;-62
2023/08/17 13:19:45;;;;;;;5.43;5.03;;;33.80;52.30;;;;;;6156581;28;20228;-62
2023/08/17 13:22:46;;;;;;;5.50;5.00;;;33.30;53.40;;;;;;6174263;28;20197;-61
2023/08/17 13:25:47;;;;;;;5.60;5.20;;;32.50;54.50;;;;;;6175011;28;20224;-63
2023/08/17 13:28:47;;;;;;;5.17;4.83;;;31.90;55.30;;;;;;6156711;28;20220;-63
2023/08/17 13:31:48;;;;;;;4.60;4.20;;;31.50;56.40;;;;;;6150931;28;20274;-64
2023/08/17 13:34:49;;;;;;;5.00;4.60;;;31.50;54.10;;;;;;6171619;28;20189;-64
2023/08/17 13:37:57;;;;;;;5.10;4.70;;;31.70;55.00;;;;;;6169059;28;20219;-64
2023/08/17 13:40:58;;;;;;;4.50;4.20;;;31.90;55.50;;;;;;6173662;28;20185;-64
2023/08/17 13:44:00;;;;;;;5.27;4.07;;;32.50;52.70;;;;;;6169673;28;20215;-64
2023/08/17 13:47:01;;;;;;;4.57;4.27;;;33.10;51.60;;;;;;6157495;28;20219;-64
2023/08/17 13:50:03;;;;;;;4.40;3.93;;;33.60;50.80;;;;;;6155365;28;20196;-64
2023/08/17 13:53:04;;;;;;;4.60;4.30;;;34.30;50.60;;;;;;6140511;28;20215;-64
2023/08/17 13:56:04;;;;;;;4.43;4.00;;;34.70;49.30;;;;;;6161585;28;20259;-64
2023/08/17 13:59:05;;;;;;;4.63;4.23;;;;;;;;;;6150643;28;20228;-64
2023/08/17 14:02:06;;;;;;;5.00;4.70;;;35.20;47.00;;;;;;6168767;28;20215;-64
2023/08/17 14:05:07;;;;;;;4.53;4.23;;;35.20;47.60;;;;;;6158052;28;20200;-65
2023/08/17 14:08:07;;;;;;;4.40;4.10;;;35.10;47.80;;;;;;6169170;28;20197;-64
2023/08/17 14:11:08;;;;;;;5.13;4.73;;;34.70;45.50;;;;;;6149938;28;20204;-64
2023/08/17 14:14:09;;;;;;;5.07;4.57;;;33.80;49.30;;;;;;6163368;28;20223;-64
2023/08/17 14:17:09;;;;;;;4.70;4.40;;;32.80;51.80;;;;;;6138188;28;20200;-64
2023/08/17 14:20:11;;;;;;;5.10;4.67;;;31.90;53.90;;;;;;6156691;28;20248;-63
2023/08/17 14:23:11;;;;;;;4.90;4.37;;;31.10;55.80;;;;;;6158056;28;20208;-63
2023/08/17 14:26:12;;;;;;;6.27;4.90;;;30.40;56.20;;;;;;6157523;28;20223;-63
2023/08/17 14:29:13;;;;;;;4.80;4.50;;;29.70;58.80;;;;;;6163057;28;20231;-63
2023/08/17 14:32:13;;;;;;;5.97;5.37;;;29.20;60.20;;;;;;6154803;28;20279;-63
2023/08/17 14:35:14;;;;;;;5.50;5.00;;;28.70;61.50;;;;;;6154447;28;20204;-63
2023/08/17 14:38:16;;;;;;;6.13;5.30;;;28.50;63.40;;;;;;6148411;28;20199;-63
2023/08/17 14:41:17;;;;;;;5.93;5.53;;;28.20;63.70;;;;;;6156317;28;20200;-63
2023/08/17 14:44:17;;;;;;;5.90;5.40;;;28.00;64.10;;;;;;6157104;28;20197;-63
2023/08/17 14:47:18;;;;;;;5.87;5.37;;;27.70;64.70;;;;;;6162439;28;20243;-63
2023/08/17 14:50:19;;;;;;;6.63;6.13;;;27.50;66.40;;;;;;6160410;28;20214;-63
2023/08/17 14:53:19;;;;;;;6.17;5.57;;;27.40;67.80;;;;;;6167006;28;20240;-63
2023/08/17 14:56:22;;;;;;;7.13;6.43;;;27.20;68.60;;;;;;6162570;28;20196;-63
2023/08/17 14:59:23;;;;;;;6.77;6.27;;;27.10;69.80;;;;;;6156416;28;20194;-63
2023/08/17 15:02:23;;;;;;;6.77;6.20;;;26.90;71.40;;;;;;6178088;28;20189;-63
2023/08/17 15:05:24;;;;;;;6.67;6.17;;;26.70;72.20;;;;;;6162895;28;20247;-63
2023/08/17 15:08:25;;;;;;;6.57;6.10;;;26.50;73.10;;;;;;6171150;28;20196;-63
2023/08/17 15:11:26;;;;;;;7.67;6.97;;;26.40;73.20;;;;;;6176920;28;20204;-63
2023/08/17 15:14:26;;;;;;;6.93;6.30;;;26.20;73.70;;;;;;6168672;28;20512;-63
2023/08/17 15:17:27;;;;;;;7.80;6.97;;;26.10;73.70;;;;;;6162995;28;20200;-63
2023/08/17 15:20:30;;;;;;;7.17;6.57;;;26.00;74.10;;;;;;6160723;28;20215;-63
2023/08/17 15:23:30;;;;;;;7.00;6.33;;;25.80;73.70;;;;;;6165339;28;20192;-63
2023/08/17 15:26:31;;;;;;;7.53;6.83;;;25.80;73.70;;;;;;6161204;28;20212;-63
2023/08/17 15:29:32;;;;;;;8.00;7.20;;;25.60;73.50;;;;;;6162076;28;20196;-63
2023/08/17 15:32:33;;;;;;;7.20;6.60;;;25.60;75.00;;;;;;6163957;28;20195;-64
2023/08/17 15:35:33;;;;;;;7.53;6.83;;;25.50;74.70;;;;;;6157267;28;20201;-64
2023/08/17 15:38:34;;;;;;;7.87;7.17;;;25.60;75.00;;;;;;6174235;28;20230;-64
2023/08/17 15:41:35;;;;;;;8.30;7.60;;;25.60;75.60;;;;;;6171849;28;20300;-63
2023/08/17 15:44:35;;;;;;;7.57;6.87;;;25.50;76.10;;;;;;6152059;28;20193;-63
2023/08/17 15:47:36;;;;;;;7.67;7.07;;;25.60;75.50;;;;;;6158588;28;20221;-63
2023/08/17 15:50:36;;;;;;;7.80;6.97;;;25.50;76.40;;;;;;6175562;28;20213;-63
2023/08/17 15:53:40;;;;;;;7.77;7.07;;;25.50;76.40;;;;;;6167062;28;20190;-63
2023/08/17 15:56:40;;;;;;;6.93;6.33;;;25.50;76.20;;;;;;6157511;28;20197;-63
2023/08/17 15:59:41;;;;;;;7.03;6.43;;;25.50;76.00;;;;;;6158407;28;20200;-63
2023/08/17 16:02:42;;;;;;;7.30;6.70;;;25.60;75.30;;;;;;6164501;28;20253;-63
2023/08/17 16:05:43;;;;;;;7.20;6.70;;;25.60;75.50;;;;;;6154986;28;20316;-63
2023/08/17 16:08:44;;;;;;;6.97;6.33;;;25.60;75.20;;;;;;6159938;28;20207;-63
2023/08/17 16:11:44;;;;;;;7.90;6.70;;;25.60;75.80;;;;;;6167166;28;20196;-65
2023/08/17 16:14:45;;;;;;;10.20;7.53;;;25.60;75.60;;;;;;6137394;28;20213;-63
2023/08/17 16:17:46;;;;;;;8.33;6.80;;;25.50;75.30;;;;;;6175929;28;20192;-64
2023/08/17 16:20:46;;;;;;;7.33;6.73;;;25.70;75.50;;;;;;6163007;28;20192;-64
2023/08/17 16:23:47;;;;;;;7.73;7.07;;;25.30;76.30;;;;;;6174881;28;20209;-64
2023/08/17 16:26:48;;;;;;;7.53;6.60;;;25.30;76.50;;;;;;6168424;28;20209;-64
2023/08/17 16:29:48;;;;;;;7.80;7.10;;;25.10;76.10;;;;;;6160651;28;20193;-66
2023/08/17 16:32:49;;;;;;;7.47;6.83;;;25.00;76.80;;;;;;6168786;28;20202;-65
2023/08/17 16:35:50;;;;;;;7.83;6.73;;;25.00;77.30;;;;;;6169049;28;20279;-64
2023/08/17 16:38:50;;;;;;;7.20;6.70;;;25.00;77.30;;;;;;6139404;28;20186;-64
2023/08/17 16:41:51;;;;;;;8.30;7.57;;;25.00;77.20;;;;;;6155743;28;20195;-64
2023/08/17 16:44:52;;;;;;;7.20;6.60;;;25.00;77.40;;;;;;6159934;28;20246;-64
2023/08/17 16:47:53;;;;;;;7.87;7.20;;;25.00;77.30;;;;;;6156828;28;20354;-64
2023/08/17 16:50:54;;;;;;;7.23;6.63;;;25.00;75.80;;;;;;6153458;28;20201;-64
2023/08/17 16:53:55;;;;;;;7.43;6.83;;;25.20;75.90;;;;;;6167513;28;20201;-64
2023/08/17 16:56:55;;;;;;;7.87;7.20;;;25.30;75.20;;;;;;6154605;28;20418;-64
2023/08/17 16:59:56;;;;;;;7.67;6.97;;;25.30;74.80;;;;;;6174360;28;20197;-64
2023/08/17 17:02:57;;;;;;;8.13;7.43;;;25.30;74.00;;;;;;6158952;28;20286;-64
2023/08/17 17:05:58;;;;;;;7.30;6.70;;;25.30;74.10;;;;;;6159166;28;20243;-63